sensor_id;sensor_type;location;lat;lon;timestamp;P1;durP1;ratioP1;P2;durP2;ratioP2
3755;SDS011;1893;52.526;13.360;2022-09-09T00:00:14;11.53;;;10.43;;
3755;SDS011;1893;52.526;13.360;2022-09-09T00:03:27;16.20;;;11.60;;
3755;SDS011;1893;52.526;13.360;2022-09-09T00:05:48;13.30;;;10.80;;
3755;SDS011;1893;52.526;13.360;2022-09-09T00:08:43;12.60;;;11.27;;
3755;SDS011;1893;52.526;13.360;2022-09-09T00:11:21;16.57;;;11.53;;
3755;SDS011;1893;52.526;13.360;2022-09-09T00:13:53;12.90;;;11.03;;
3755;SDS011;1893;52.526;13.360;2022-09-09T00:16:22;16.13;;;11.87;;
3755;SDS011;1893;52.526;13.360;2022-09-09T00:19:07;15.43;;;12.57;;
3755;SDS011;1893;52.526;13.360;2022-09-09T00:21:34;15.80;;;12.43;;
3755;SDS011;1893;52.526;13.360;2022-09-09T00:24:08;16.50;;;12.27;;
3755;SDS011;1893;52.526;13.360;2022-09-09T00:26:40;12.97;;;11.63;;
3755;SDS011;1893;52.526;13.360;2022-09-09T00:31:38;14.90;;;12.83;;
3755;SDS011;1893;52.526;13.360;2022-09-09T00:34:10;16.80;;;12.67;;
3755;SDS011;1893;52.526;13.360;2022-09-09T00:36:55;16.87;;;13.07;;
3755;SDS011;1893;52.526;13.360;2022-09-09T00:39:29;17.30;;;13.27;;
3755;SDS011;1893;52.526;13.360;2022-09-09T00:42:10;14.87;;;12.30;;
3755;SDS011;1893;52.526;13.360;2022-09-09T00:45:02;13.73;;;11.90;;
3755;SDS011;1893;52.526;13.360;2022-09-09T00:47:51;15.20;;;12.63;;
3755;SDS011;1893;52.526;13.360;2022-09-09T00:53:26;14.80;;;12.30;;
3755;SDS011;1893;52.526;13.360;2022-09-09T00:56:13;15.97;;;12.77;;
3755;SDS011;1893;52.526;13.360;2022-09-09T00:58:54;13.00;;;11.63;;
3755;SDS011;1893;52.526;13.360;2022-09-09T01:01:30;13.87;;;11.63;;
3755;SDS011;1893;52.526;13.360;2022-09-09T01:03:56;14.40;;;11.80;;
3755;SDS011;1893;52.526;13.360;2022-09-09T01:06:29;14.17;;;12.63;;
3755;SDS011;1893;52.526;13.360;2022-09-09T01:16:59;15.47;;;12.47;;
3755;SDS011;1893;52.526;13.360;2022-09-09T01:19:52;22.67;;;12.47;;
3755;SDS011;1893;52.526;13.360;2022-09-09T01:22:34;16.23;;;11.77;;
3755;SDS011;1893;52.526;13.360;2022-09-09T01:25:28;16.70;;;11.23;;
3755;SDS011;1893;52.526;13.360;2022-09-09T01:28:14;16.07;;;13.27;;
3755;SDS011;1893;52.526;13.360;2022-09-09T01:30:43;12.90;;;11.20;;
3755;SDS011;1893;52.526;13.360;2022-09-09T01:33:10;15.70;;;13.07;;
3755;SDS011;1893;52.526;13.360;2022-09-09T01:35:48;13.70;;;12.27;;
3755;SDS011;1893;52.526;13.360;2022-09-09T01:38:19;15.53;;;12.00;;
3755;SDS011;1893;52.526;13.360;2022-09-09T01:40:46;14.53;;;12.43;;
3755;SDS011;1893;52.526;13.360;2022-09-09T01:43:11;15.97;;;13.27;;
3755;SDS011;1893;52.526;13.360;2022-09-09T01:45:38;14.50;;;11.80;;
3755;SDS011;1893;52.526;13.360;2022-09-09T01:48:05;13.57;;;11.93;;
3755;SDS011;1893;52.526;13.360;2022-09-09T01:50:31;15.23;;;12.13;;
3755;SDS011;1893;52.526;13.360;2022-09-09T01:52:57;13.80;;;11.40;;
3755;SDS011;1893;52.526;13.360;2022-09-09T01:55:29;14.87;;;11.60;;
3755;SDS011;1893;52.526;13.360;2022-09-09T01:58:04;14.17;;;12.67;;
3755;SDS011;1893;52.526;13.360;2022-09-09T02:00:47;13.73;;;11.80;;
3755;SDS011;1893;52.526;13.360;2022-09-09T02:03:37;14.13;;;11.13;;
3755;SDS011;1893;52.526;13.360;2022-09-09T02:06:20;15.37;;;12.33;;
3755;SDS011;1893;52.526;13.360;2022-09-09T02:08:52;14.10;;;12.17;;
3755;SDS011;1893;52.526;13.360;2022-09-09T02:11:24;15.07;;;11.90;;
3755;SDS011;1893;52.526;13.360;2022-09-09T02:13:52;18.53;;;12.20;;
3755;SDS011;1893;52.526;13.360;2022-09-09T02:16:24;13.23;;;11.80;;
3755;SDS011;1893;52.526;13.360;2022-09-09T02:19:18;15.57;;;10.87;;
3755;SDS011;1893;52.526;13.360;2022-09-09T02:21:50;13.93;;;11.00;;
3755;SDS011;1893;52.526;13.360;2022-09-09T02:24:19;14.67;;;11.30;;
3755;SDS011;1893;52.526;13.360;2022-09-09T02:26:46;13.30;;;10.73;;
3755;SDS011;1893;52.526;13.360;2022-09-09T02:29:16;14.70;;;10.43;;
3755;SDS011;1893;52.526;13.360;2022-09-09T02:31:45;14.90;;;10.80;;
3755;SDS011;1893;52.526;13.360;2022-09-09T02:34:14;12.97;;;11.00;;
3755;SDS011;1893;52.526;13.360;2022-09-09T02:36:42;12.90;;;10.70;;
3755;SDS011;1893;52.526;13.360;2022-09-09T02:39:10;13.10;;;10.80;;
3755;SDS011;1893;52.526;13.360;2022-09-09T02:41:38;13.33;;;10.70;;
3755;SDS011;1893;52.526;13.360;2022-09-09T02:44:08;13.60;;;10.80;;
3755;SDS011;1893;52.526;13.360;2022-09-09T02:52:05;12.00;;;9.87;;
3755;SDS011;1893;52.526;13.360;2022-09-09T02:54:33;14.33;;;10.83;;
3755;SDS011;1893;52.526;13.360;2022-09-09T02:57:11;12.57;;;11.27;;
3755;SDS011;1893;52.526;13.360;2022-09-09T02:59:46;13.77;;;11.00;;
3755;SDS011;1893;52.526;13.360;2022-09-09T03:02:13;13.63;;;11.33;;
3755;SDS011;1893;52.526;13.360;2022-09-09T03:04:39;16.30;;;11.70;;
3755;SDS011;1893;52.526;13.360;2022-09-09T03:07:05;11.90;;;10.67;;
3755;SDS011;1893;52.526;13.360;2022-09-09T03:09:31;13.50;;;10.20;;
3755;SDS011;1893;52.526;13.360;2022-09-09T03:11:57;13.37;;;10.07;;
3755;SDS011;1893;52.526;13.360;2022-09-09T03:14:23;10.93;;;9.73;;
3755;SDS011;1893;52.526;13.360;2022-09-09T03:16:53;13.33;;;10.80;;
3755;SDS011;1893;52.526;13.360;2022-09-09T03:19:19;11.63;;;10.07;;
3755;SDS011;1893;52.526;13.360;2022-09-09T03:21:45;13.07;;;9.80;;
3755;SDS011;1893;52.526;13.360;2022-09-09T03:24:12;12.53;;;9.43;;
3755;SDS011;1893;52.526;13.360;2022-09-09T03:26:38;13.20;;;10.23;;
3755;SDS011;1893;52.526;13.360;2022-09-09T03:29:05;11.97;;;10.10;;
3755;SDS011;1893;52.526;13.360;2022-09-09T03:31:33;12.43;;;11.13;;
3755;SDS011;1893;52.526;13.360;2022-09-09T03:34:00;11.20;;;9.67;;
3755;SDS011;1893;52.526;13.360;2022-09-09T03:36:26;12.03;;;10.40;;
3755;SDS011;1893;52.526;13.360;2022-09-09T03:38:53;13.93;;;10.77;;
3755;SDS011;1893;52.526;13.360;2022-09-09T03:41:22;12.20;;;10.27;;
3755;SDS011;1893;52.526;13.360;2022-09-09T03:43:49;11.10;;;9.63;;
3755;SDS011;1893;52.526;13.360;2022-09-09T03:46:15;13.60;;;9.57;;
3755;SDS011;1893;52.526;13.360;2022-09-09T03:48:41;13.67;;;9.87;;
3755;SDS011;1893;52.526;13.360;2022-09-09T03:51:07;12.77;;;10.17;;
3755;SDS011;1893;52.526;13.360;2022-09-09T03:53:32;10.73;;;9.30;;
3755;SDS011;1893;52.526;13.360;2022-09-09T03:55:58;10.97;;;9.40;;
3755;SDS011;1893;52.526;13.360;2022-09-09T03:58:24;12.57;;;9.70;;
3755;SDS011;1893;52.526;13.360;2022-09-09T04:00:55;10.40;;;9.10;;
3755;SDS011;1893;52.526;13.360;2022-09-09T04:03:25;9.80;;;8.80;;
3755;SDS011;1893;52.526;13.360;2022-09-09T04:05:51;10.40;;;9.13;;
3755;SDS011;1893;52.526;13.360;2022-09-09T04:08:18;10.60;;;9.37;;
3755;SDS011;1893;52.526;13.360;2022-09-09T04:10:44;10.47;;;8.93;;
3755;SDS011;1893;52.526;13.360;2022-09-09T04:13:11;12.80;;;9.73;;
3755;SDS011;1893;52.526;13.360;2022-09-09T04:15:39;9.13;;;8.03;;
3755;SDS011;1893;52.526;13.360;2022-09-09T04:18:04;11.20;;;8.57;;
3755;SDS011;1893;52.526;13.360;2022-09-09T04:20:31;13.30;;;8.83;;
3755;SDS011;1893;52.526;13.360;2022-09-09T04:22:57;10.43;;;8.43;;
3755;SDS011;1893;52.526;13.360;2022-09-09T04:25:23;10.33;;;8.77;;
3755;SDS011;1893;52.526;13.360;2022-09-09T04:27:53;10.63;;;8.63;;
3755;SDS011;1893;52.526;13.360;2022-09-09T04:30:23;9.40;;;8.37;;
3755;SDS011;1893;52.526;13.360;2022-09-09T04:32:49;11.50;;;9.03;;
3755;SDS011;1893;52.526;13.360;2022-09-09T04:35:15;9.10;;;7.63;;
3755;SDS011;1893;52.526;13.360;2022-09-09T04:37:41;12.13;;;8.80;;
3755;SDS011;1893;52.526;13.360;2022-09-09T04:40:07;9.03;;;8.13;;
3755;SDS011;1893;52.526;13.360;2022-09-09T04:42:37;10.80;;;8.70;;
3755;SDS011;1893;52.526;13.360;2022-09-09T04:45:04;11.97;;;8.77;;
3755;SDS011;1893;52.526;13.360;2022-09-09T04:47:31;9.33;;;7.70;;
3755;SDS011;1893;52.526;13.360;2022-09-09T04:49:57;11.47;;;8.83;;
3755;SDS011;1893;52.526;13.360;2022-09-09T04:52:23;9.80;;;7.60;;
3755;SDS011;1893;52.526;13.360;2022-09-09T04:54:48;9.73;;;8.73;;
3755;SDS011;1893;52.526;13.360;2022-09-09T04:57:14;9.93;;;8.83;;
3755;SDS011;1893;52.526;13.360;2022-09-09T04:59:39;10.73;;;8.53;;
3755;SDS011;1893;52.526;13.360;2022-09-09T05:02:05;13.13;;;9.03;;
3755;SDS011;1893;52.526;13.360;2022-09-09T05:04:31;12.20;;;8.83;;
3755;SDS011;1893;52.526;13.360;2022-09-09T05:06:58;14.90;;;8.20;;
3755;SDS011;1893;52.526;13.360;2022-09-09T05:09:23;11.77;;;8.93;;
3755;SDS011;1893;52.526;13.360;2022-09-09T05:11:49;11.60;;;8.50;;
3755;SDS011;1893;52.526;13.360;2022-09-09T05:14:14;11.63;;;9.30;;
3755;SDS011;1893;52.526;13.360;2022-09-09T05:16:40;10.73;;;8.40;;
3755;SDS011;1893;52.526;13.360;2022-09-09T05:19:05;8.33;;;6.90;;
3755;SDS011;1893;52.526;13.360;2022-09-09T05:21:33;14.00;;;9.00;;
3755;SDS011;1893;52.526;13.360;2022-09-09T05:23:58;12.20;;;7.27;;
3755;SDS011;1893;52.526;13.360;2022-09-09T05:26:25;10.03;;;7.37;;
3755;SDS011;1893;52.526;13.360;2022-09-09T05:28:51;8.87;;;7.93;;
3755;SDS011;1893;52.526;13.360;2022-09-09T05:31:17;10.50;;;8.60;;
3755;SDS011;1893;52.526;13.360;2022-09-09T05:33:44;9.47;;;7.17;;
3755;SDS011;1893;52.526;13.360;2022-09-09T05:36:14;11.53;;;7.90;;
3755;SDS011;1893;52.526;13.360;2022-09-09T05:38:42;10.97;;;8.43;;
3755;SDS011;1893;52.526;13.360;2022-09-09T05:41:08;8.43;;;7.10;;
3755;SDS011;1893;52.526;13.360;2022-09-09T05:43:36;8.23;;;7.00;;
3755;SDS011;1893;52.526;13.360;2022-09-09T05:46:07;9.77;;;7.47;;
3755;SDS011;1893;52.526;13.360;2022-09-09T05:48:35;9.83;;;7.23;;
3755;SDS011;1893;52.526;13.360;2022-09-09T05:51:02;14.00;;;7.20;;
3755;SDS011;1893;52.526;13.360;2022-09-09T05:53:30;10.70;;;7.90;;
3755;SDS011;1893;52.526;13.360;2022-09-09T05:58:35;8.67;;;6.67;;
3755;SDS011;1893;52.526;13.360;2022-09-09T06:01:05;7.47;;;6.60;;
3755;SDS011;1893;52.526;13.360;2022-09-09T06:03:35;7.93;;;7.07;;
3755;SDS011;1893;52.526;13.360;2022-09-09T06:06:04;10.50;;;7.37;;
3755;SDS011;1893;52.526;13.360;2022-09-09T06:08:32;7.27;;;6.60;;
3755;SDS011;1893;52.526;13.360;2022-09-09T06:11:03;6.00;;;5.50;;
3755;SDS011;1893;52.526;13.360;2022-09-09T06:13:29;8.00;;;5.80;;
3755;SDS011;1893;52.526;13.360;2022-09-09T06:15:55;6.50;;;5.90;;
3755;SDS011;1893;52.526;13.360;2022-09-09T06:18:21;6.70;;;6.10;;
3755;SDS011;1893;52.526;13.360;2022-09-09T06:20:56;8.27;;;6.30;;
3755;SDS011;1893;52.526;13.360;2022-09-09T06:23:29;7.33;;;6.10;;
3755;SDS011;1893;52.526;13.360;2022-09-09T06:26:02;8.33;;;5.17;;
3755;SDS011;1893;52.526;13.360;2022-09-09T06:28:33;7.70;;;5.20;;
3755;SDS011;1893;52.526;13.360;2022-09-09T06:30:59;7.90;;;5.50;;
3755;SDS011;1893;52.526;13.360;2022-09-09T06:33:26;6.90;;;5.40;;
3755;SDS011;1893;52.526;13.360;2022-09-09T06:35:55;17.60;;;15.53;;
3755;SDS011;1893;52.526;13.360;2022-09-09T06:38:22;17.40;;;7.00;;
3755;SDS011;1893;52.526;13.360;2022-09-09T06:40:54;8.47;;;6.90;;
3755;SDS011;1893;52.526;13.360;2022-09-09T06:43:21;10.97;;;6.27;;
3755;SDS011;1893;52.526;13.360;2022-09-09T06:45:55;7.50;;;5.90;;
3755;SDS011;1893;52.526;13.360;2022-09-09T06:48:21;10.37;;;5.70;;
3755;SDS011;1893;52.526;13.360;2022-09-09T06:50:47;5.67;;;5.17;;
3755;SDS011;1893;52.526;13.360;2022-09-09T06:53:16;9.50;;;5.90;;
3755;SDS011;1893;52.526;13.360;2022-09-09T06:55:44;10.10;;;5.60;;
3755;SDS011;1893;52.526;13.360;2022-09-09T06:58:10;4.53;;;4.13;;
3755;SDS011;1893;52.526;13.360;2022-09-09T07:00:36;8.70;;;6.30;;
3755;SDS011;1893;52.526;13.360;2022-09-09T07:03:04;8.43;;;5.70;;
3755;SDS011;1893;52.526;13.360;2022-09-09T07:05:31;6.20;;;3.97;;
3755;SDS011;1893;52.526;13.360;2022-09-09T07:07:56;7.13;;;3.67;;
3755;SDS011;1893;52.526;13.360;2022-09-09T07:10:22;7.00;;;3.97;;
3755;SDS011;1893;52.526;13.360;2022-09-09T07:12:51;5.30;;;3.13;;
3755;SDS011;1893;52.526;13.360;2022-09-09T07:15:17;6.30;;;4.27;;
3755;SDS011;1893;52.526;13.360;2022-09-09T07:17:44;2.83;;;2.50;;
3755;SDS011;1893;52.526;13.360;2022-09-09T07:20:10;5.30;;;3.60;;
3755;SDS011;1893;52.526;13.360;2022-09-09T07:22:37;11.77;;;4.30;;
3755;SDS011;1893;52.526;13.360;2022-09-09T07:25:02;4.23;;;2.97;;
3755;SDS011;1893;52.526;13.360;2022-09-09T07:27:28;8.07;;;3.00;;
3755;SDS011;1893;52.526;13.360;2022-09-09T07:29:55;4.57;;;3.00;;
3755;SDS011;1893;52.526;13.360;2022-09-09T07:32:20;9.70;;;2.87;;
3755;SDS011;1893;52.526;13.360;2022-09-09T07:34:46;3.37;;;2.87;;
3755;SDS011;1893;52.526;13.360;2022-09-09T07:37:12;2.83;;;2.63;;
3755;SDS011;1893;52.526;13.360;2022-09-09T07:39:38;7.40;;;2.80;;
3755;SDS011;1893;52.526;13.360;2022-09-09T07:42:04;3.30;;;2.00;;
3755;SDS011;1893;52.526;13.360;2022-09-09T07:44:30;5.73;;;2.50;;
3755;SDS011;1893;52.526;13.360;2022-09-09T07:46:59;2.90;;;1.97;;
3755;SDS011;1893;52.526;13.360;2022-09-09T07:49:25;3.90;;;2.20;;
3755;SDS011;1893;52.526;13.360;2022-09-09T07:51:50;2.53;;;1.87;;
3755;SDS011;1893;52.526;13.360;2022-09-09T07:54:17;3.53;;;2.03;;
3755;SDS011;1893;52.526;13.360;2022-09-09T07:56:48;3.00;;;2.03;;
3755;SDS011;1893;52.526;13.360;2022-09-09T07:59:14;2.77;;;1.93;;
3755;SDS011;1893;52.526;13.360;2022-09-09T08:01:48;5.33;;;2.63;;
3755;SDS011;1893;52.526;13.360;2022-09-09T08:04:18;2.70;;;1.80;;
3755;SDS011;1893;52.526;13.360;2022-09-09T08:06:50;3.20;;;1.73;;
3755;SDS011;1893;52.526;13.360;2022-09-09T08:09:23;2.60;;;1.80;;
3755;SDS011;1893;52.526;13.360;2022-09-09T08:11:54;4.80;;;1.93;;
3755;SDS011;1893;52.526;13.360;2022-09-09T08:14:21;3.10;;;1.80;;
3755;SDS011;1893;52.526;13.360;2022-09-09T08:16:48;2.73;;;1.70;;
3755;SDS011;1893;52.526;13.360;2022-09-09T08:19:14;5.50;;;1.80;;
3755;SDS011;1893;52.526;13.360;2022-09-09T08:21:41;3.00;;;1.80;;
3755;SDS011;1893;52.526;13.360;2022-09-09T08:24:08;3.17;;;1.43;;
3755;SDS011;1893;52.526;13.360;2022-09-09T08:26:41;1.77;;;1.57;;
3755;SDS011;1893;52.526;13.360;2022-09-09T08:29:08;3.83;;;2.20;;
3755;SDS011;1893;52.526;13.360;2022-09-09T08:31:36;10.13;;;1.80;;
3755;SDS011;1893;52.526;13.360;2022-09-09T08:34:03;5.63;;;2.20;;
3755;SDS011;1893;52.526;13.360;2022-09-09T08:36:31;2.43;;;1.43;;
3755;SDS011;1893;52.526;13.360;2022-09-09T08:38:58;2.70;;;2.20;;
3755;SDS011;1893;52.526;13.360;2022-09-09T08:47:32;5.10;;;2.20;;
3755;SDS011;1893;52.526;13.360;2022-09-09T08:53:01;9.03;;;2.70;;
3755;SDS011;1893;52.526;13.360;2022-09-09T08:58:20;2.80;;;1.87;;
3755;SDS011;1893;52.526;13.360;2022-09-09T09:09:08;3.27;;;1.80;;
3755;SDS011;1893;52.526;13.360;2022-09-09T09:11:58;3.57;;;1.77;;
3755;SDS011;1893;52.526;13.360;2022-09-09T09:14:29;4.63;;;1.80;;
3755;SDS011;1893;52.526;13.360;2022-09-09T09:17:15;5.03;;;1.77;;
3755;SDS011;1893;52.526;13.360;2022-09-09T09:19:46;6.00;;;1.83;;
3755;SDS011;1893;52.526;13.360;2022-09-09T09:22:21;4.77;;;2.20;;
3755;SDS011;1893;52.526;13.360;2022-09-09T09:27:58;3.80;;;2.10;;
3755;SDS011;1893;52.526;13.360;2022-09-09T09:30:51;3.53;;;2.00;;
3755;SDS011;1893;52.526;13.360;2022-09-09T09:33:31;6.17;;;2.00;;
3755;SDS011;1893;52.526;13.360;2022-09-09T09:36:08;3.90;;;2.00;;
3755;SDS011;1893;52.526;13.360;2022-09-09T09:38:34;2.17;;;1.57;;
3755;SDS011;1893;52.526;13.360;2022-09-09T09:41:01;3.50;;;2.00;;
3755;SDS011;1893;52.526;13.360;2022-09-09T09:43:27;3.20;;;1.70;;
3755;SDS011;1893;52.526;13.360;2022-09-09T09:45:58;7.23;;;1.63;;
3755;SDS011;1893;52.526;13.360;2022-09-09T09:48:24;5.57;;;1.90;;
3755;SDS011;1893;52.526;13.360;2022-09-09T09:50:53;11.70;;;2.10;;
3755;SDS011;1893;52.526;13.360;2022-09-09T09:53:32;3.27;;;1.40;;
3755;SDS011;1893;52.526;13.360;2022-09-09T09:56:00;2.30;;;1.40;;
3755;SDS011;1893;52.526;13.360;2022-09-09T09:58:27;7.40;;;1.97;;
3755;SDS011;1893;52.526;13.360;2022-09-09T10:00:57;3.30;;;1.77;;
3755;SDS011;1893;52.526;13.360;2022-09-09T10:05:52;7.97;;;1.30;;
3755;SDS011;1893;52.526;13.360;2022-09-09T10:08:18;2.87;;;1.30;;
3755;SDS011;1893;52.526;13.360;2022-09-09T10:13:18;2.17;;;1.40;;
3755;SDS011;1893;52.526;13.360;2022-09-09T10:27:04;4.03;;;1.10;;
3755;SDS011;1893;52.526;13.360;2022-09-09T10:30:01;3.53;;;1.20;;
3755;SDS011;1893;52.526;13.360;2022-09-09T10:32:56;1.93;;;1.30;;
3755;SDS011;1893;52.526;13.360;2022-09-09T10:40:59;2.80;;;1.30;;
3755;SDS011;1893;52.526;13.360;2022-09-09T10:52:22;4.03;;;1.30;;
3755;SDS011;1893;52.526;13.360;2022-09-09T10:55:10;2.20;;;1.10;;
3755;SDS011;1893;52.526;13.360;2022-09-09T10:57:43;4.90;;;1.20;;
3755;SDS011;1893;52.526;13.360;2022-09-09T11:00:20;3.83;;;1.30;;
3755;SDS011;1893;52.526;13.360;2022-09-09T11:03:02;2.70;;;1.17;;
3755;SDS011;1893;52.526;13.360;2022-09-09T11:05:41;3.80;;;1.30;;
3755;SDS011;1893;52.526;13.360;2022-09-09T11:08:12;4.67;;;1.40;;
3755;SDS011;1893;52.526;13.360;2022-09-09T11:13:30;1.53;;;1.20;;
3755;SDS011;1893;52.526;13.360;2022-09-09T11:19:00;2.27;;;1.07;;
3755;SDS011;1893;52.526;13.360;2022-09-09T11:21:37;3.70;;;1.60;;
3755;SDS011;1893;52.526;13.360;2022-09-09T11:24:13;1.93;;;1.20;;
3755;SDS011;1893;52.526;13.360;2022-09-09T11:26:54;2.87;;;1.30;;
3755;SDS011;1893;52.526;13.360;2022-09-09T11:29:41;3.60;;;1.30;;
3755;SDS011;1893;52.526;13.360;2022-09-09T11:38:52;2.47;;;1.93;;
3755;SDS011;1893;52.526;13.360;2022-09-09T11:41:32;3.57;;;1.50;;
3755;SDS011;1893;52.526;13.360;2022-09-09T11:44:08;3.30;;;1.40;;
3755;SDS011;1893;52.526;13.360;2022-09-09T11:46:36;2.60;;;1.27;;
3755;SDS011;1893;52.526;13.360;2022-09-09T11:49:04;5.03;;;1.40;;
3755;SDS011;1893;52.526;13.360;2022-09-09T11:51:31;2.47;;;1.43;;
3755;SDS011;1893;52.526;13.360;2022-09-09T11:56:46;1.53;;;0.80;;
3755;SDS011;1893;52.526;13.360;2022-09-09T11:59:31;1.43;;;0.83;;
3755;SDS011;1893;52.526;13.360;2022-09-09T12:02:00;1.47;;;1.20;;
3755;SDS011;1893;52.526;13.360;2022-09-09T12:04:48;1.27;;;0.90;;
3755;SDS011;1893;52.526;13.360;2022-09-09T12:07:25;2.10;;;1.30;;
3755;SDS011;1893;52.526;13.360;2022-09-09T12:12:43;3.60;;;1.00;;
3755;SDS011;1893;52.526;13.360;2022-09-09T12:17:50;4.03;;;1.27;;
3755;SDS011;1893;52.526;13.360;2022-09-09T12:25:59;2.50;;;1.30;;
3755;SDS011;1893;52.526;13.360;2022-09-09T12:31:44;1.40;;;1.20;;
3755;SDS011;1893;52.526;13.360;2022-09-09T12:37:06;2.50;;;1.00;;
3755;SDS011;1893;52.526;13.360;2022-09-09T12:39:42;2.00;;;1.20;;
3755;SDS011;1893;52.526;13.360;2022-09-09T12:42:19;1.90;;;1.00;;
3755;SDS011;1893;52.526;13.360;2022-09-09T12:44:52;2.00;;;1.27;;
3755;SDS011;1893;52.526;13.360;2022-09-09T12:47:26;3.00;;;1.00;;
3755;SDS011;1893;52.526;13.360;2022-09-09T12:50:00;3.60;;;0.87;;
3755;SDS011;1893;52.526;13.360;2022-09-09T12:52:30;2.50;;;1.00;;
3755;SDS011;1893;52.526;13.360;2022-09-09T12:55:00;1.97;;;0.90;;
3755;SDS011;1893;52.526;13.360;2022-09-09T12:57:30;3.17;;;1.00;;
3755;SDS011;1893;52.526;13.360;2022-09-09T13:02:51;2.97;;;1.10;;
3755;SDS011;1893;52.526;13.360;2022-09-09T13:05:25;2.40;;;1.20;;
3755;SDS011;1893;52.526;13.360;2022-09-09T13:08:10;3.87;;;1.10;;
3755;SDS011;1893;52.526;13.360;2022-09-09T13:10:38;1.43;;;0.90;;
3755;SDS011;1893;52.526;13.360;2022-09-09T13:13:19;1.83;;;1.10;;
3755;SDS011;1893;52.526;13.360;2022-09-09T13:15:48;3.00;;;1.07;;
3755;SDS011;1893;52.526;13.360;2022-09-09T13:18:16;4.10;;;1.20;;
3755;SDS011;1893;52.526;13.360;2022-09-09T13:20:47;2.10;;;1.00;;
3755;SDS011;1893;52.526;13.360;2022-09-09T13:23:13;3.30;;;0.90;;
3755;SDS011;1893;52.526;13.360;2022-09-09T13:25:42;3.73;;;1.10;;
3755;SDS011;1893;52.526;13.360;2022-09-09T13:28:29;4.23;;;1.23;;
3755;SDS011;1893;52.526;13.360;2022-09-09T13:30:59;4.53;;;1.30;;
3755;SDS011;1893;52.526;13.360;2022-09-09T13:33:33;3.67;;;1.13;;
3755;SDS011;1893;52.526;13.360;2022-09-09T13:36:05;4.20;;;1.63;;
3755;SDS011;1893;52.526;13.360;2022-09-09T13:38:35;2.07;;;1.40;;
3755;SDS011;1893;52.526;13.360;2022-09-09T13:41:21;2.97;;;1.00;;
3755;SDS011;1893;52.526;13.360;2022-09-09T13:43:48;1.13;;;0.97;;
3755;SDS011;1893;52.526;13.360;2022-09-09T13:48:57;5.47;;;1.00;;
3755;SDS011;1893;52.526;13.360;2022-09-09T13:51:33;3.30;;;0.90;;
3755;SDS011;1893;52.526;13.360;2022-09-09T13:54:09;2.60;;;1.10;;
3755;SDS011;1893;52.526;13.360;2022-09-09T13:56:36;4.00;;;1.10;;
3755;SDS011;1893;52.526;13.360;2022-09-09T13:59:04;1.70;;;0.90;;
3755;SDS011;1893;52.526;13.360;2022-09-09T14:01:31;3.90;;;1.00;;
3755;SDS011;1893;52.526;13.360;2022-09-09T14:03:59;4.10;;;1.20;;
3755;SDS011;1893;52.526;13.360;2022-09-09T14:06:25;2.90;;;0.97;;
3755;SDS011;1893;52.526;13.360;2022-09-09T14:08:52;3.23;;;0.93;;
3755;SDS011;1893;52.526;13.360;2022-09-09T14:11:19;5.37;;;1.07;;
3755;SDS011;1893;52.526;13.360;2022-09-09T14:13:46;3.20;;;1.10;;
3755;SDS011;1893;52.526;13.360;2022-09-09T14:16:12;2.23;;;1.00;;
3755;SDS011;1893;52.526;13.360;2022-09-09T14:18:38;2.10;;;1.23;;
3755;SDS011;1893;52.526;13.360;2022-09-09T14:21:04;2.13;;;0.90;;
3755;SDS011;1893;52.526;13.360;2022-09-09T14:23:29;2.00;;;1.00;;
3755;SDS011;1893;52.526;13.360;2022-09-09T14:25:56;3.00;;;0.90;;
3755;SDS011;1893;52.526;13.360;2022-09-09T14:28:22;3.60;;;1.10;;
3755;SDS011;1893;52.526;13.360;2022-09-09T14:30:47;4.60;;;1.00;;
3755;SDS011;1893;52.526;13.360;2022-09-09T14:33:13;4.30;;;0.97;;
3755;SDS011;1893;52.526;13.360;2022-09-09T14:35:40;1.27;;;0.97;;
3755;SDS011;1893;52.526;13.360;2022-09-09T14:38:08;1.60;;;0.90;;
3755;SDS011;1893;52.526;13.360;2022-09-09T14:40:34;3.60;;;1.07;;
3755;SDS011;1893;52.526;13.360;2022-09-09T14:43:01;4.37;;;1.07;;
3755;SDS011;1893;52.526;13.360;2022-09-09T14:45:27;4.53;;;1.20;;
3755;SDS011;1893;52.526;13.360;2022-09-09T14:47:53;4.13;;;0.90;;
3755;SDS011;1893;52.526;13.360;2022-09-09T14:50:19;5.30;;;1.10;;
3755;SDS011;1893;52.526;13.360;2022-09-09T14:52:46;1.67;;;0.80;;
3755;SDS011;1893;52.526;13.360;2022-09-09T14:55:12;3.73;;;1.03;;
3755;SDS011;1893;52.526;13.360;2022-09-09T14:57:38;3.10;;;1.07;;
3755;SDS011;1893;52.526;13.360;2022-09-09T15:00:05;2.23;;;1.30;;
3755;SDS011;1893;52.526;13.360;2022-09-09T15:02:32;3.57;;;1.00;;
3755;SDS011;1893;52.526;13.360;2022-09-09T15:04:57;2.27;;;1.27;;
3755;SDS011;1893;52.526;13.360;2022-09-09T15:07:23;2.67;;;1.33;;
3755;SDS011;1893;52.526;13.360;2022-09-09T15:09:50;3.07;;;1.20;;
3755;SDS011;1893;52.526;13.360;2022-09-09T15:12:15;1.67;;;0.90;;
3755;SDS011;1893;52.526;13.360;2022-09-09T15:14:43;5.13;;;1.23;;
3755;SDS011;1893;52.526;13.360;2022-09-09T15:17:09;3.13;;;1.17;;
3755;SDS011;1893;52.526;13.360;2022-09-09T15:19:35;1.87;;;1.00;;
3755;SDS011;1893;52.526;13.360;2022-09-09T15:22:01;8.83;;;1.40;;
3755;SDS011;1893;52.526;13.360;2022-09-09T15:24:28;2.53;;;0.90;;
3755;SDS011;1893;52.526;13.360;2022-09-09T15:26:53;4.50;;;1.33;;
3755;SDS011;1893;52.526;13.360;2022-09-09T15:29:19;8.40;;;1.70;;
3755;SDS011;1893;52.526;13.360;2022-09-09T15:31:44;2.30;;;1.13;;
3755;SDS011;1893;52.526;13.360;2022-09-09T15:34:11;5.10;;;1.27;;
3755;SDS011;1893;52.526;13.360;2022-09-09T15:36:39;4.57;;;1.03;;
3755;SDS011;1893;52.526;13.360;2022-09-09T15:39:07;3.50;;;1.20;;
3755;SDS011;1893;52.526;13.360;2022-09-09T15:41:40;6.83;;;1.50;;
3755;SDS011;1893;52.526;13.360;2022-09-09T15:44:06;2.60;;;1.20;;
3755;SDS011;1893;52.526;13.360;2022-09-09T15:46:32;3.20;;;1.20;;
3755;SDS011;1893;52.526;13.360;2022-09-09T15:51:56;2.83;;;1.27;;
3755;SDS011;1893;52.526;13.360;2022-09-09T15:54:24;2.03;;;1.20;;
3755;SDS011;1893;52.526;13.360;2022-09-09T15:56:52;5.63;;;1.10;;
3755;SDS011;1893;52.526;13.360;2022-09-09T15:59:20;1.40;;;1.20;;
3755;SDS011;1893;52.526;13.360;2022-09-09T16:01:49;2.23;;;1.40;;
3755;SDS011;1893;52.526;13.360;2022-09-09T16:04:16;1.60;;;1.13;;
3755;SDS011;1893;52.526;13.360;2022-09-09T16:06:48;2.07;;;1.10;;
3755;SDS011;1893;52.526;13.360;2022-09-09T16:09:15;2.47;;;1.37;;
3755;SDS011;1893;52.526;13.360;2022-09-09T16:11:40;2.00;;;1.33;;
3755;SDS011;1893;52.526;13.360;2022-09-09T16:14:06;4.60;;;1.47;;
3755;SDS011;1893;52.526;13.360;2022-09-09T16:16:32;2.33;;;1.23;;
3755;SDS011;1893;52.526;13.360;2022-09-09T16:18:59;3.00;;;1.40;;
3755;SDS011;1893;52.526;13.360;2022-09-09T16:21:28;6.50;;;1.90;;
3755;SDS011;1893;52.526;13.360;2022-09-09T16:23:56;5.67;;;1.40;;
3755;SDS011;1893;52.526;13.360;2022-09-09T16:26:27;3.03;;;1.20;;
3755;SDS011;1893;52.526;13.360;2022-09-09T16:28:54;4.03;;;1.50;;
3755;SDS011;1893;52.526;13.360;2022-09-09T16:31:21;3.53;;;1.73;;
3755;SDS011;1893;52.526;13.360;2022-09-09T16:33:48;4.50;;;1.53;;
3755;SDS011;1893;52.526;13.360;2022-09-09T16:36:15;3.37;;;1.47;;
3755;SDS011;1893;52.526;13.360;2022-09-09T16:38:42;3.83;;;1.20;;
3755;SDS011;1893;52.526;13.360;2022-09-09T16:41:09;2.33;;;1.40;;
3755;SDS011;1893;52.526;13.360;2022-09-09T16:43:36;2.10;;;1.20;;
3755;SDS011;1893;52.526;13.360;2022-09-09T16:46:12;1.50;;;1.20;;
3755;SDS011;1893;52.526;13.360;2022-09-09T16:48:40;1.93;;;1.77;;
3755;SDS011;1893;52.526;13.360;2022-09-09T16:51:07;3.13;;;1.50;;
3755;SDS011;1893;52.526;13.360;2022-09-09T16:53:36;3.03;;;1.50;;
3755;SDS011;1893;52.526;13.360;2022-09-09T16:56:09;3.20;;;1.57;;
3755;SDS011;1893;52.526;13.360;2022-09-09T16:58:36;3.20;;;1.00;;
3755;SDS011;1893;52.526;13.360;2022-09-09T17:01:02;5.33;;;2.00;;
3755;SDS011;1893;52.526;13.360;2022-09-09T17:03:29;4.47;;;2.00;;
3755;SDS011;1893;52.526;13.360;2022-09-09T17:05:56;2.73;;;1.70;;